Time;durP1;ratioP1;P1;durP2;ratioP2;P2;SDS_P1;SDS_P2;PMS_P1;PMS_P2;Temp;Humidity;BMP_temperature;BMP_pressure;BME280_temperature;BME280_humidity;BME280_pressure;Samples;Min_cycle;Max_cycle;Signal;HPM_P1;HPM_P2
2022/11/15 00:01:21;;;;;;;23.17;16.13;;;;;;;10.39;100.00;101010.09;4995262;28;20088;-63
2022/11/15 00:03:51;;;;;;;22.63;15.85;;;;;;;10.36;100.00;101003.38;4989165;28;20393;-63
2022/11/15 00:06:16;;;;;;;22.05;16.67;;;;;;;10.35;100.00;101006.09;4987973;28;20061;-63
2022/11/15 00:08:41;;;;;;;23.23;16.55;;;;;;;10.34;100.00;100994.03;4989807;28;20042;-63
2022/11/15 00:11:10;;;;;;;25.63;15.70;;;;;;;10.31;100.00;101005.53;4989677;28;20034;-63
2022/11/15 00:13:36;;;;;;;22.83;15.63;;;;;;;10.32;100.00;101007.19;4983909;28;20056;-63
2022/11/15 00:16:02;;;;;;;26.30;17.85;;;;;;;10.34;100.00;100999.25;4990336;28;20518;-63
2022/11/15 00:18:28;;;;;;;23.05;17.67;;;;;;;10.35;100.00;101000.91;4988385;28;20057;-63
2022/11/15 00:20:54;;;;;;;23.00;15.93;;;;;;;10.29;100.00;100992.63;4970115;28;20046;-63
2022/11/15 00:23:20;;;;;;;23.50;17.02;;;;;;;10.22;100.00;100990.69;4973448;28;20533;-63
2022/11/15 00:25:45;;;;;;;26.90;16.73;;;;;;;10.21;100.00;100997.66;4973099;28;20068;-63
2022/11/15 00:28:11;;;;;;;25.48;15.80;;;;;;;10.26;100.00;101003.31;4972879;28;20121;-63
2022/11/15 00:30:36;;;;;;;21.77;15.05;;;;;;;10.28;100.00;101001.41;4976637;28;20038;-64
2022/11/15 00:33:06;;;;;;;23.25;16.23;;;;;;;10.28;100.00;100996.19;4976011;28;20405;-64
2022/11/15 00:35:36;;;;;;;23.50;17.42;;;;;;;10.23;100.00;100998.38;4978033;28;20437;-63
2022/11/15 00:38:02;;;;;;;26.40;16.73;;;;;;;10.17;100.00;100993.63;4971112;28;20042;-63
2022/11/15 00:40:28;;;;;;;24.70;17.42;;;;;;;10.18;100.00;100997.88;4977241;28;20030;-64
2022/11/15 00:42:53;;;;;;;23.88;17.90;;;;;;;10.17;100.00;100996.25;4979452;28;20030;-63
2022/11/15 00:45:19;;;;;;;23.52;17.05;;;;;;;10.22;100.00;100991.50;4972028;28;20038;-63
2022/11/15 00:47:46;;;;;;;23.42;16.90;;;;;;;10.23;100.00;100987.94;4978770;28;20057;-63
2022/11/15 00:50:11;;;;;;;25.90;18.23;;;;;;;10.21;100.00;100995.06;4974785;28;20066;-63
2022/11/15 00:52:37;;;;;;;30.15;17.98;;;;;;;10.19;100.00;100985.69;4971153;28;20208;-63
2022/11/15 00:55:02;;;;;;;20.98;15.52;;;;;;;10.16;100.00;100991.97;4974481;28;20061;-63
2022/11/15 00:57:28;;;;;;;26.13;18.10;;;;;;;10.17;100.00;100988.44;4974118;28;20114;-63
2022/11/15 00:59:53;;;;;;;25.02;17.23;;;;;;;10.18;100.00;100987.47;4979440;28;20050;-63
2022/11/15 01:02:19;;;;;;;27.77;16.88;;;;;;;10.15;100.00;100977.31;4973942;28;20084;-63
2022/11/15 01:04:44;;;;;;;24.90;17.60;;;;;;;10.15;100.00;100979.91;4974568;28;20776;-63
2022/11/15 01:07:09;;;;;;;24.33;17.25;;;;;;;10.16;100.00;100973.75;4971797;28;20445;-64
2022/11/15 01:09:35;;;;;;;20.92;16.05;;;;;;;10.19;100.00;100970.94;4978204;28;20042;-64
2022/11/15 02:05:50;;;;;;;18.98;14.13;;;;;;;9.28;100.00;100942.94;4987152;28;20497;-64
2022/11/15 02:08:19;;;;;;;24.77;15.57;;;;;;;9.27;100.00;100948.25;4978447;28;20046;-64
2022/11/15 02:10:46;;;;;;;19.02;14.07;;;;;;;9.29;100.00;100948.94;4978932;28;20121;-63
2022/11/15 02:13:15;;;;;;;22.73;15.15;;;;;;;9.29;100.00;100951.56;4980239;28;20054;-63
2022/11/15 02:15:51;;;;;;;20.25;14.10;;;;;;;9.28;100.00;100942.94;4988897;28;20121;-63
2022/11/15 02:18:30;;;;;;;20.75;14.77;;;;;;;9.26;100.00;100944.00;4992673;28;20493;-63
2022/11/15 02:21:00;;;;;;;20.45;14.68;;;;;;;9.23;100.00;100941.66;4992691;28;20034;-62
2022/11/15 02:23:56;;;;;;;18.08;13.20;;;;;;;9.24;100.00;100940.69;4988794;28;20065;-63
2022/11/15 02:26:25;;;;;;;22.42;15.27;;;;;;;9.24;100.00;100940.69;4991327;28;20038;-63
2022/11/15 02:29:03;;;;;;;19.75;14.18;;;;;;;9.23;100.00;100946.84;4997050;28;20385;-63
2022/11/15 02:31:31;;;;;;;17.13;13.23;;;;;;;9.20;100.00;100939.28;4987759;28;20108;-65
2022/11/15 02:34:22;;;;;;;18.60;13.50;;;;;;;9.14;100.00;100926.78;4990567;28;20019;-63
2022/11/15 02:37:15;;;;;;;19.65;13.73;;;;;;;9.14;100.00;100924.19;4995968;28;20030;-63
2022/11/15 02:40:09;;;;;;;20.42;13.95;;;;;;;9.11;100.00;100921.84;4975986;28;20042;-63
2022/11/15 02:45:37;;;;;;;18.38;13.73;;;;;;;9.16;100.00;100919.69;4976956;28;20032;-63
2022/11/15 02:48:04;;;;;;;22.85;14.25;;;;;;;9.13;100.00;100925.13;4971448;28;20077;-62
2022/11/15 02:50:32;;;;;;;23.73;13.00;;;;;;;9.13;100.00;100925.97;4975540;28;20030;-63
2022/11/15 02:52:58;;;;;;;21.15;12.98;;;;;;;9.12;100.00;100926.09;4975111;28;20050;-63
2022/11/15 02:55:41;;;;;;;16.20;12.48;;;;;;;9.08;100.00;100928.09;4971254;28;20105;-63
2022/11/15 02:58:22;;;;;;;18.85;11.52;;;;;;;9.11;100.00;100929.63;4981252;28;20037;-63
2022/11/15 03:00:55;;;;;;;13.25;10.18;;;;;;;9.09;100.00;100932.34;4976772;28;20093;-63
2022/11/15 03:03:39;;;;;;;11.65;9.75;;;;;;;9.11;100.00;100929.63;4976912;28;20026;-63
2022/11/15 03:06:25;;;;;;;16.60;11.45;;;;;;;9.10;100.00;100930.56;4974343;28;20041;-63
2022/11/15 03:09:05;;;;;;;14.43;9.73;;;;;;;9.12;100.00;100926.09;4988915;28;20427;-63
2022/11/15 03:11:35;;;;;;;14.40;9.70;;;;;;;9.14;100.00;100921.59;4989856;28;20030;-63
2022/11/15 03:14:08;;;;;;;14.60;9.20;;;;;;;9.12;100.00;100923.47;4992541;28;20034;-63
2022/11/15 03:16:39;;;;;;;14.27;9.30;;;;;;;9.17;100.00;100918.75;4991582;28;21417;-63
2022/11/15 03:19:17;;;;;;;12.65;9.13;;;;;;;9.21;100.00;100926.16;4993292;28;20450;-63
2022/11/15 03:21:44;;;;;;;19.48;10.13;;;;;;;9.23;100.00;100920.84;4989955;28;20038;-63
2022/11/15 03:24:11;;;;;;;12.68;9.23;;;;;;;9.28;100.00;100916.09;4991068;28;20407;-63
2022/11/15 03:26:40;;;;;;;12.27;9.00;;;;;;;9.26;100.00;100912.78;4993399;28;20053;-63
2022/11/15 03:29:16;;;;;;;11.77;8.77;;;;;;;9.23;100.00;100908.66;4991250;28;20026;-63
2022/11/15 03:31:48;;;;;;;10.77;7.93;;;;;;;9.21;100.00;100915.75;4993059;28;20042;-63
2022/11/15 03:34:26;;;;;;;11.32;8.32;;;;;;;9.20;100.00;100910.69;4994543;28;20036;-63
2022/11/15 03:36:52;;;;;;;16.25;9.55;;;;;;;9.21;100.00;100904.53;4989913;28;20030;-63
2022/11/15 03:39:19;;;;;;;14.60;9.50;;;;;;;9.21;100.00;100902.78;4987335;28;20027;-63
2022/11/15 03:42:07;;;;;;;11.98;8.50;;;;;;;9.25;100.00;100900.75;4982821;28;20042;-63
2022/11/15 03:44:45;;;;;;;9.02;7.47;;;;;;;9.35;100.00;100899.03;4990501;28;20035;-64
2022/11/15 03:47:23;;;;;;;12.55;8.07;;;;;;;9.42;100.00;100897.59;4985380;28;20034;-63
2022/11/15 03:49:58;;;;;;;7.57;5.82;;;;;;;9.47;100.00;100902.38;4988192;28;20121;-64
2022/11/15 03:52:23;;;;;;;7.32;5.65;;;;;;;9.51;100.00;100896.81;4988929;28;20034;-63
2022/11/15 03:54:51;;;;;;;9.50;6.80;;;;;;;9.52;100.00;100902.84;4994688;28;20026;-63
2022/11/15 03:57:16;;;;;;;10.15;6.97;;;;;;;9.50;100.00;100905.56;4990141;28;20046;-63
2022/11/15 03:59:42;;;;;;;10.20;7.07;;;;;;;9.49;100.00;100897.88;4991691;28;20501;-63
2022/11/15 04:02:07;;;;;;;9.43;6.32;;;;;;;9.43;100.00;100903.63;4986916;28;20467;-64
2022/11/15 04:04:33;;;;;;;10.70;7.38;;;;;;;9.27;100.00;100891.88;4991121;28;20449;-63
2022/11/15 04:06:58;;;;;;;11.55;8.98;;;;;;;9.19;100.00;100896.03;4992624;28;20034;-63
2022/11/15 04:09:24;;;;;;;13.35;10.20;;;;;;;9.17;100.00;100893.56;4992531;28;20140;-63
2022/11/15 04:11:49;;;;;;;14.80;9.98;;;;;;;9.20;100.00;100892.50;4989476;28;20072;-63
2022/11/15 04:14:14;;;;;;;12.68;10.00;;;;;;;9.25;100.00;100903.34;4988301;28;20397;-63
2022/11/15 04:16:40;;;;;;;12.55;10.52;;;;;;;9.25;100.00;100900.75;4989143;28;20469;-64
2022/11/15 04:24:33;;;;;;;12.65;11.10;;;;;;;9.25;100.00;100887.75;4988664;28;20073;-63
2022/11/15 04:26:59;;;;;;;16.20;11.10;;;;;;;9.27;100.00;100888.44;4987850;28;20431;-64
2022/11/15 04:29:34;;;;;;;15.02;11.07;;;;;;;9.24;100.00;100886.09;4987304;28;20113;-63
2022/11/15 04:32:02;;;;;;;14.65;10.48;;;;;;;9.18;100.00;100892.63;5006901;28;20065;-63
2022/11/15 04:34:27;;;;;;;14.25;10.52;;;;;;;9.17;100.00;100895.34;4989892;28;20038;-64
2022/11/15 04:39:37;;;;;;;13.27;8.85;;;;;;;9.11;100.00;100906.22;4977107;28;20538;-63
2022/11/15 04:42:02;;;;;;;16.20;9.70;;;;;;;9.08;100.00;100893.47;4974945;28;20035;-63
2022/11/15 04:44:27;;;;;;;12.85;10.38;;;;;;;9.09;100.00;100900.34;4973254;28;20048;-63
2022/11/15 04:46:53;;;;;;;11.93;9.38;;;;;;;9.04;100.00;100903.31;4973140;28;20355;-63
2022/11/15 04:49:18;;;;;;;12.55;9.45;;;;;;;8.92;100.00;100893.91;4983822;28;20038;-63
2022/11/15 04:51:44;;;;;;;11.40;9.05;;;;;;;8.90;100.00;100888.03;4990928;28;20042;-64
2022/11/15 04:54:09;;;;;;;9.75;8.38;;;;;;;8.90;100.00;100894.03;4993858;28;20343;-63
2022/11/15 04:56:35;;;;;;;11.30;8.63;;;;;;;8.90;100.00;100893.22;4990439;28;20497;-63
2022/11/15 04:59:00;;;;;;;9.40;6.70;;;;;;;8.88;100.00;100895.94;4995516;28;20488;-63
2022/11/15 05:01:26;;;;;;;11.70;8.27;;;;;;;8.89;100.00;100889.78;4999628;28;20038;-63
2022/11/15 05:06:35;;;;;;;9.52;6.90;;;;;;;8.85;100.00;100890.16;4998052;28;20052;-63
2022/11/15 05:09:00;;;;;;;10.55;7.30;;;;;;;8.83;100.00;100884.25;4997000;28;20053;-63
2022/11/15 05:11:27;;;;;;;12.65;7.90;;;;;;;8.83;100.00;100890.28;4990421;28;20022;-63
2022/11/15 05:13:52;;;;;;;9.13;7.22;;;;;;;8.84;100.00;100896.31;4992560;28;20469;-63
2022/11/15 05:16:18;;;;;;;13.85;8.65;;;;;;;8.84;100.00;100886.75;4993836;28;20042;-64
2022/11/15 05:18:44;;;;;;;10.25;7.70;;;;;;;8.85;100.00;100890.16;4991605;28;20034;-63
2022/11/15 05:21:12;;;;;;;10.45;8.50;;;;;;;8.82;100.00;100893.81;4989427;28;20106;-63
2022/11/15 05:23:38;;;;;;;10.98;8.20;;;;;;;8.85;100.00;100892.75;5000883;28;20125;-64
2022/11/15 05:26:05;;;;;;;13.38;9.40;;;;;;;8.88;100.00;100898.53;4992890;28;20502;-64
2022/11/15 05:28:32;;;;;;;9.23;7.75;;;;;;;8.91;100.00;100893.09;4994260;28;20034;-63
2022/11/15 05:31:01;;;;;;;10.77;7.90;;;;;;;8.92;100.00;100894.75;4993421;28;20508;-64
2022/11/15 05:33:27;;;;;;;13.02;9.85;;;;;;;8.95;100.00;100904.06;4996119;28;20184;-63
2022/11/15 05:36:02;;;;;;;11.07;9.38;;;;;;;8.96;100.00;100909.16;4986330;28;20121;-63
2022/11/15 05:38:28;;;;;;;13.63;8.68;;;;;;;8.98;100.00;100899.41;4973717;28;20608;-63
2022/11/15 05:40:54;;;;;;;11.73;7.93;;;;;;;9.03;100.00;100901.66;4978108;28;20038;-64
2022/11/15 05:43:20;;;;;;;9.90;7.70;;;;;;;9.06;100.00;100895.38;4989249;28;20022;-64
2022/11/15 05:45:45;;;;;;;11.48;8.18;;;;;;;9.15;100.00;100897.25;5012467;28;20485;-63
2022/11/15 05:48:11;;;;;;;11.80;7.63;;;;;;;9.21;100.00;100892.38;4995345;28;20417;-63
2022/11/15 05:50:40;;;;;;;9.52;7.07;;;;;;;9.23;100.00;100898.28;4992978;28;20430;-64
2022/11/15 05:53:07;;;;;;;8.48;6.43;;;;;;;9.28;100.00;100890.91;4990575;28;20394;-63
2022/11/15 05:55:32;;;;;;;9.88;7.00;;;;;;;9.28;100.00;100895.28;4995062;28;20401;-63
2022/11/15 05:57:58;;;;;;;8.20;6.47;;;;;;;9.24;100.00;100894.72;4989184;28;20037;-64
2022/11/15 06:00:23;;;;;;;11.18;7.68;;;;;;;9.23;100.00;100897.44;4983064;28;20037;-64
2022/11/15 06:02:49;;;;;;;11.80;6.80;;;;;;;9.26;100.00;100910.19;4994775;28;20053;-63
2022/11/15 06:05:14;;;;;;;8.90;5.97;;;;;;;9.32;100.00;100902.72;4987931;28;20026;-64
2022/11/15 06:07:40;;;;;;;10.27;6.72;;;;;;;9.39;100.00;100903.03;4990712;28;20026;-63
2022/11/15 06:10:06;;;;;;;9.73;6.22;;;;;;;9.42;100.00;100904.56;4992857;28;20042;-64
2022/11/15 06:12:31;;;;;;;8.85;6.85;;;;;;;9.45;100.00;100906.91;4990378;28;20057;-64
2022/11/15 06:14:57;;;;;;;9.00;6.70;;;;;;;9.44;100.00;100903.50;4992142;28;20037;-64
2022/11/15 06:17:22;;;;;;;10.00;7.03;;;;;;;9.46;100.00;100909.38;4993201;28;20092;-63
2022/11/15 06:19:47;;;;;;;12.95;7.32;;;;;;;9.48;100.00;100907.47;4990363;28;20026;-63
2022/11/15 06:22:13;;;;;;;11.65;8.10;;;;;;;9.45;100.00;100912.91;4996902;28;20030;-64
2022/11/15 06:24:38;;;;;;;9.88;8.02;;;;;;;9.45;100.00;100904.31;4994423;28;20026;-64
2022/11/15 06:27:04;;;;;;;10.55;7.65;;;;;;;9.45;100.00;100909.53;4991394;28;20026;-64
2022/11/15 06:29:29;;;;;;;11.80;7.95;;;;;;;9.44;100.00;100908.69;4992137;28;20037;-63
2022/11/15 06:31:54;;;;;;;10.30;6.95;;;;;;;9.49;100.00;100903.09;4993175;28;20042;-64
2022/11/15 06:34:20;;;;;;;10.65;7.72;;;;;;;9.52;100.00;100910.63;4991509;28;20089;-64
2022/11/15 06:36:45;;;;;;;10.90;7.15;;;;;;;9.52;100.00;100908.03;4987268;28;20065;-64
2022/11/15 06:39:11;;;;;;;9.40;7.05;;;;;;;9.54;100.00;100906.97;4988924;28;20034;-64
2022/11/15 06:41:36;;;;;;;9.60;6.97;;;;;;;9.56;100.00;100910.25;4985215;28;20037;-64
2022/11/15 06:44:02;;;;;;;8.75;6.88;;;;;;;9.59;100.00;100915.22;4987716;28;20423;-64
2022/11/15 06:46:28;;;;;;;12.65;6.88;;;;;;;9.62;100.00;100914.13;4992436;28;20030;-63
2022/11/15 06:48:55;;;;;;;9.45;6.63;;;;;;;9.67;100.00;100918.97;4995505;28;20056;-64
2022/11/15 06:51:20;;;;;;;10.45;7.35;;;;;;;9.70;100.00;100927.34;4992591;28;20033;-63
2022/11/15 06:53:46;;;;;;;11.13;7.03;;;;;;;9.72;100.00;100919.41;4992424;28;20429;-63
2022/11/15 06:56:11;;;;;;;11.48;7.55;;;;;;;9.73;100.00;100928.84;4992449;28;20089;-63
2022/11/15 06:58:37;;;;;;;9.88;6.82;;;;;;;9.76;100.00;100926.00;4996174;28;20030;-64
2022/11/15 07:01:09;;;;;;;12.63;7.50;;;;;;;9.78;100.00;100924.09;4991811;28;20121;-64
2022/11/15 07:03:37;;;;;;;9.88;7.32;;;;;;;9.81;100.00;100916.03;4991243;28;20105;-64
2022/11/15 07:06:02;;;;;;;11.55;7.95;;;;;;;9.81;100.00;100910.84;4990726;28;20385;-64
2022/11/15 07:08:30;;;;;;;9.23;6.68;;;;;;;9.80;100.00;100915.22;4995571;28;20045;-64
2022/11/15 07:11:01;;;;;;;9.18;6.70;;;;;;;9.79;100.00;100917.94;4989931;28;20074;-64
2022/11/15 07:13:28;;;;;;;10.77;7.85;;;;;;;9.77;100.00;100917.25;4990744;28;20505;-63
2022/11/15 07:15:53;;;;;;;16.85;12.65;;;;;;;9.72;100.00;100901.19;4999018;28;20060;-64
2022/11/15 07:18:19;;;;;;;16.05;10.68;;;;;;;9.73;100.00;100906.25;4990489;28;20366;-64
2022/11/15 07:20:44;;;;;;;13.90;7.40;;;;;;;9.74;100.00;100896.69;4988594;28;20030;-63
2022/11/15 07:23:10;;;;;;;13.13;7.07;;;;;;;9.80;100.00;100890.97;4986670;28;20034;-64
2022/11/15 07:25:35;;;;;;;10.73;7.25;;;;;;;9.86;100.00;100895.66;4989734;28;20121;-64
2022/11/15 07:28:02;;;;;;;8.63;7.13;;;;;;;9.91;100.00;100896.09;4990180;28;20062;-64
2022/11/15 07:30:28;;;;;;;12.77;8.10;;;;;;;9.96;100.00;100907.75;4990461;28;20045;-64
2022/11/15 07:32:58;;;;;;;12.23;8.73;;;;;;;10.04;100.00;100904.50;4985362;28;20034;-64
2022/11/15 07:35:25;;;;;;;10.52;7.55;;;;;;;10.10;100.00;100914.38;4983490;28;20045;-64
2022/11/15 07:37:58;;;;;;;16.38;8.90;;;;;;;10.15;100.00;100917.44;4990007;28;20433;-64
2022/11/15 07:40:25;;;;;;;9.52;8.07;;;;;;;10.17;100.00;100915.50;4989743;28;20048;-64
2022/11/15 07:42:53;;;;;;;15.85;9.23;;;;;;;10.20;100.00;100924.88;4986038;28;20045;-63
2022/11/15 07:45:20;;;;;;;11.43;9.25;;;;;;;10.24;100.00;100921.06;4986918;28;20042;-64
2022/11/15 07:47:46;;;;;;;10.73;9.02;;;;;;;10.26;100.00;100925.19;4991894;28;20080;-63
2022/11/15 07:50:12;;;;;;;11.60;9.05;;;;;;;10.29;100.00;100930.13;4988851;28;20032;-64
2022/11/15 07:52:37;;;;;;;10.25;8.45;;;;;;;10.30;100.00;100934.38;4990176;28;20034;-65
2022/11/15 07:55:03;;;;;;;10.65;7.63;;;;;;;10.33;100.00;100933.31;4993236;28;20056;-64
2022/11/15 07:57:29;;;;;;;11.80;7.78;;;;;;;10.34;100.00;100923.72;4994531;28;20034;-64
2022/11/15 07:59:55;;;;;;;11.27;7.97;;;;;;;10.34;100.00;100921.09;4991710;28;20031;-64
2022/11/15 08:02:20;;;;;;;10.30;7.05;;;;;;;10.29;100.00;100922.31;4986787;28;20088;-64
2022/11/15 08:04:46;;;;;;;11.07;8.02;;;;;;;10.29;100.00;100919.72;4988312;28;20436;-64
2022/11/15 08:07:11;;;;;;;9.70;7.35;;;;;;;10.35;100.00;100920.97;4982043;28;20026;-63
2022/11/15 08:09:37;;;;;;;13.43;7.10;;;;;;;10.30;100.00;100921.38;4987737;28;20461;-64
2022/11/15 08:12:02;;;;;;;9.75;7.15;;;;;;;10.32;100.00;100918.63;4984091;28;20121;-64
2022/11/15 08:14:27;;;;;;;10.73;8.15;;;;;;;10.36;100.00;100913.97;4989087;28;20030;-64
2022/11/15 08:16:54;;;;;;;13.27;8.13;;;;;;;10.39;100.00;100916.31;4983924;28;20046;-64
2022/11/15 08:19:20;;;;;;;15.30;8.95;;;;;;;10.42;100.00;100913.44;4993514;28;20049;-64
2022/11/15 08:21:45;;;;;;;13.55;9.05;;;;;;;10.51;100.00;100917.84;4992811;28;20068;-64
2022/11/15 08:24:10;;;;;;;12.45;8.10;;;;;;;10.61;100.00;100918.69;4987688;28;20045;-64
2022/11/15 08:26:36;;;;;;;15.80;7.97;;;;;;;10.67;100.00;100918.16;4994975;28;20107;-64
2022/11/15 08:29:02;;;;;;;10.02;7.03;;;;;;;10.74;100.00;100924.50;4990985;28;20022;-64
2022/11/15 08:31:27;;;;;;;7.60;5.70;;;;;;;10.81;100.00;100920.41;4988834;28;20030;-64
2022/11/15 08:33:53;;;;;;;9.52;6.22;;;;;;;10.87;100.00;100919.03;4993281;28;20037;-64
2022/11/15 08:36:19;;;;;;;10.75;6.90;;;;;;;10.93;100.00;100911.47;4994520;28;20033;-64
2022/11/15 08:38:44;;;;;;;10.32;7.20;;;;;;;10.92;100.00;100899.41;5004865;28;20113;-63
2022/11/15 08:41:14;;;;;;;9.75;7.38;;;;;;;10.94;100.00;100900.09;4991874;28;20119;-64
2022/11/15 08:43:40;;;;;;;9.25;6.97;;;;;;;10.99;100.00;100894.47;4992877;28;20034;-64
2022/11/15 08:46:05;;;;;;;8.02;5.88;;;;;;;11.03;100.00;100897.63;4986237;28;20697;-64
2022/11/15 08:48:31;;;;;;;11.00;6.38;;;;;;;11.01;100.00;100899.53;4989609;28;20097;-63
2022/11/15 08:50:57;;;;;;;8.82;7.05;;;;;;;11.01;100.00;100905.56;4988696;28;20074;-64
2022/11/15 08:53:23;;;;;;;8.93;6.45;;;;;;;11.04;100.00;100904.47;4987459;28;20489;-64
2022/11/15 08:55:48;;;;;;;8.13;6.32;;;;;;;11.07;100.00;100905.03;4987328;28;20035;-64
2022/11/15 08:58:13;;;;;;;9.27;6.82;;;;;;;11.10;100.00;100909.16;4987186;28;20101;-63
2022/11/15 09:00:39;;;;;;;8.95;7.18;;;;;;;11.15;100.00;100902.56;4990897;28;20044;-64
2022/11/15 09:03:06;;;;;;;10.02;7.30;;;;;;;11.19;100.00;100901.34;4992659;28;20054;-63
2022/11/15 09:05:31;;;;;;;11.50;6.72;;;;;;;11.20;100.00;100916.03;4990882;28;20030;-64
2022/11/15 09:07:57;;;;;;;7.93;6.25;;;;;;;11.26;100.00;100909.44;4989967;28;20052;-64
2022/11/15 09:10:22;;;;;;;18.98;7.65;;;;;;;11.32;100.00;100911.50;4990883;28;20062;-63
2022/11/15 09:12:48;;;;;;;8.45;6.53;;;;;;;11.35;100.00;100908.59;4988159;28;20038;-63
2022/11/15 09:15:14;;;;;;;9.05;6.82;;;;;;;11.42;100.00;100908.84;4996498;28;20505;-63
2022/11/15 09:17:40;;;;;;;7.95;6.95;;;;;;;11.48;100.00;100906.50;4992345;28;20049;-63
2022/11/15 09:20:06;;;;;;;8.77;6.55;;;;;;;11.57;100.00;100912.69;4996646;28;20030;-63
2022/11/15 09:22:31;;;;;;;12.43;6.85;;;;;;;11.65;100.00;100904.97;4994899;28;20164;-63
2022/11/15 09:24:57;;;;;;;9.82;6.65;;;;;;;11.69;100.00;100906.34;4996379;28;20116;-63
2022/11/15 09:27:22;;;;;;;10.30;6.57;;;;;;;11.74;100.00;100913.75;4990674;28;20034;-63
2022/11/15 09:29:48;;;;;;;9.05;6.85;;;;;;;11.77;100.00;100910.91;4991134;28;20039;-63
2022/11/15 09:32:13;;;;;;;9.75;7.10;;;;;;;11.84;100.00;100909.34;4989704;28;20026;-64
2022/11/15 09:34:38;;;;;;;9.70;6.85;;;;;;;11.88;100.00;100900.25;4990017;28;20026;-63
2022/11/15 09:37:04;;;;;;;13.55;7.68;;;;;;;11.92;100.00;100899.84;4991004;28;20034;-64
2022/11/15 09:39:29;;;;;;;11.55;7.70;;;;;;;11.89;100.00;100897.50;4997802;28;20042;-62
2022/11/15 09:42:18;;;;;;;7.68;6.40;;;;;;;11.89;100.00;100891.47;4993952;28;20100;-65
2022/11/15 09:44:49;;;;;;;12.07;6.93;;;;;;;11.83;100.00;100892.03;4969339;28;20412;-64
2022/11/15 09:47:35;;;;;;;10.15;6.85;;;;;;;11.87;100.00;100888.19;4993271;28;20104;-64
2022/11/15 09:50:10;;;;;;;9.23;6.10;;;;;;;11.95;100.00;100885.69;4996995;28;20092;-65
2022/11/15 09:52:38;;;;;;;9.03;6.87;;;;;;;11.99;100.00;100876.59;4992936;28;20037;-64
2022/11/15 09:55:05;;;;;;;5.53;4.38;;;;;;;12.08;100.00;100869.69;4992643;28;20129;-65
2022/11/15 09:57:51;;;;;;;5.75;4.30;;;;;;;12.12;100.00;100869.25;4996715;28;20033;-64
2022/11/15 10:00:19;;;;;;;5.13;4.20;;;;;;;12.14;100.00;100863.91;4992817;28;20045;-65
2022/11/15 10:03:04;;;;;;;7.05;4.85;;;;;;;12.08;100.00;100864.47;4993982;28;20057;-66
2022/11/15 10:05:31;;;;;;;6.60;5.60;;;;;;;12.07;100.00;100858.41;4993828;28;20022;-65
2022/11/15 10:08:31;;;;;;;8.85;3.78;;;;;;;12.05;100.00;100859.53;4992437;28;20104;-64
2022/11/15 10:11:00;;;;;;;4.65;3.50;;;;;;;12.10;100.00;100846.88;4993251;28;20042;-65
2022/11/15 10:13:31;;;;;;;5.53;4.10;;;;;;;12.17;100.00;100846.16;4998590;28;20045;-63
2022/11/15 10:16:21;;;;;;;6.78;5.03;;;;;;;12.24;100.00;100841.16;4999465;28;20023;-64
2022/11/15 10:19:04;;;;;;;5.45;4.03;;;;;;;12.33;100.00;100824.59;4988781;28;20056;-63
2022/11/15 10:21:53;;;;;;;6.35;3.72;;;;;;;12.40;100.00;100830.88;4986676;28;20357;-64
2022/11/15 10:24:24;;;;;;;4.65;3.67;;;;;;;12.49;100.00;100821.31;4992798;28;20548;-63
2022/11/15 10:26:50;;;;;;;4.78;4.28;;;;;;;12.54;100.00;100813.88;4993601;28;20044;-64
2022/11/15 10:29:23;;;;;;;5.38;4.20;;;;;;;12.60;100.00;100818.50;4992875;28;20042;-63
2022/11/15 10:31:49;;;;;;;6.28;4.13;;;;;;;12.78;100.00;100816.69;4997342;28;20037;-64
2022/11/15 10:34:18;;;;;;;6.10;4.78;;;;;;;12.95;100.00;100812.41;4993340;28;20034;-63
2022/11/15 10:37:04;;;;;;;5.38;3.95;;;;;;;13.12;100.00;100814.19;4995775;28;20148;-63
2022/11/15 10:39:30;;;;;;;4.80;3.15;;;;;;;13.17;100.00;100805.94;4992681;28;20458;-63
2022/11/15 10:41:56;;;;;;;4.25;3.83;;;;;;;13.19;100.00;100802.19;5009797;28;20038;-64
2022/11/15 10:44:28;;;;;;;3.90;3.50;;;;;;;13.19;100.00;100796.94;5007816;28;20036;-64
2022/11/15 10:46:56;;;;;;;5.10;3.55;;;;;;;13.19;100.00;100798.75;4992144;28;20034;-64
2022/11/15 10:49:25;;;;;;;6.07;4.20;;;;;;;13.20;100.00;100795.16;4997381;28;20038;-64
2022/11/15 10:51:59;;;;;;;6.97;5.32;;;;;;;13.15;100.00;100792.97;4993017;28;20038;-63
2022/11/15 10:54:28;;;;;;;7.43;5.53;;;;;;;13.09;100.00;100795.38;4985725;28;20093;-63
2022/11/15 10:56:57;;;;;;;6.13;4.93;;;;;;;13.07;100.00;100785.06;4992343;28;20431;-64
2022/11/15 10:59:35;;;;;;;8.45;5.45;;;;;;;13.02;100.00;100783.88;4991739;28;20521;-64
2022/11/15 11:02:01;;;;;;;10.82;5.30;;;;;;;13.03;100.00;100775.88;4994139;28;20034;-63
2022/11/15 11:04:26;;;;;;;6.00;4.72;;;;;;;12.98;100.00;100774.69;4992838;28;20591;-64
2022/11/15 11:06:56;;;;;;;5.72;4.57;;;;;;;12.97;100.00;100763.41;4992694;28;20042;-63
2022/11/15 11:09:36;;;;;;;6.97;4.55;;;;;;;13.03;100.00;100767.19;4983614;28;20046;-63
2022/11/15 11:12:04;;;;;;;5.82;4.43;;;;;;;13.08;100.00;100762.34;4990210;28;20184;-63
2022/11/15 11:14:35;;;;;;;7.30;4.28;;;;;;;13.12;100.00;100763.69;4991713;28;20038;-62
2022/11/15 11:17:16;;;;;;;5.00;3.63;;;;;;;13.14;100.00;100754.69;4986456;28;20040;-62
2022/11/15 11:20:03;;;;;;;6.97;4.90;;;;;;;13.14;100.00;100757.31;4991649;28;20031;-63
2022/11/15 11:22:58;;;;;;;5.00;3.83;;;;;;;13.20;100.00;100753.28;4988060;28;20057;-63
2022/11/15 11:25:30;;;;;;;4.03;3.13;;;;;;;13.30;100.00;100743.50;4984270;28;20026;-63
2022/11/15 11:28:22;;;;;;;5.50;2.97;;;;;;;13.35;100.00;100736.03;4996279;28;20083;-62
2022/11/15 11:30:54;;;;;;;7.15;3.83;;;;;;;13.41;100.00;100735.41;4988233;28;20035;-62
2022/11/15 11:34:13;;;;;;;4.47;3.53;;;;;;;13.39;100.00;100736.53;4988704;28;20043;-63
2022/11/15 11:36:50;;;;;;;4.50;3.70;;;;;;;13.37;100.00;100731.47;4989023;28;20128;-63
2022/11/15 11:39:18;;;;;;;4.55;3.30;;;;;;;13.38;100.00;100727.88;4992637;28;20050;-63
2022/11/15 11:42:03;;;;;;;6.05;3.40;;;;;;;13.41;100.00;100731.97;4984732;28;20037;-63
2022/11/15 11:44:53;;;;;;;4.47;3.50;;;;;;;13.46;100.00;100727.09;4986871;28;20123;-63
2022/11/15 11:47:24;;;;;;;4.40;3.63;;;;;;;13.49;100.00;100724.97;4988887;28;20277;-63
2022/11/15 11:50:01;;;;;;;8.00;4.47;;;;;;;13.59;100.00;100712.59;4983213;28;20045;-63
2022/11/15 11:52:38;;;;;;;5.00;3.92;;;;;;;13.63;100.00;100705.25;4981838;28;20031;-63
2022/11/15 11:55:24;;;;;;;5.15;3.58;;;;;;;13.69;100.00;100703.78;4984274;28;20092;-63
2022/11/15 11:58:20;;;;;;;4.55;3.03;;;;;;;13.75;100.00;100697.88;4986314;28;20474;-64
2022/11/15 12:00:56;;;;;;;3.65;3.05;;;;;;;13.82;100.00;100694.47;4989780;28;20034;-63
2022/11/15 12:03:34;;;;;;;3.55;2.47;;;;;;;13.84;100.00;100687.28;4984773;28;20378;-63
2022/11/15 12:06:24;;;;;;;3.95;3.03;;;;;;;13.82;100.00;100691.03;4987694;28;20060;-64
2022/11/15 12:08:53;;;;;;;6.07;2.42;;;;;;;13.79;100.00;100686.94;4988547;28;20073;-63
2022/11/15 12:11:57;;;;;;;3.80;3.05;;;;;;;13.81;100.00;100681.53;4986991;28;20501;-64
2022/11/15 12:14:32;;;;;;;5.22;3.10;;;;;;;13.81;100.00;100678.94;4967464;28;20038;-64
2022/11/15 12:16:58;;;;;;;5.22;2.22;;;;;;;13.81;100.00;100679.75;4989274;28;20034;-64
2022/11/15 12:19:25;;;;;;;6.65;2.78;;;;;;;13.83;100.00;100679.59;4987541;28;20035;-64
2022/11/15 12:22:10;;;;;;;6.30;3.60;;;;;;;13.83;100.00;100676.97;4989583;28;20038;-64
2022/11/15 12:30:40;;;;;;;5.72;3.30;;;;;;;13.55;100.00;100674.63;4965487;28;20325;-67
2022/11/15 12:36:30;;;;;;;4.28;2.80;;;;;;;13.41;100.00;100664.75;5709590;23;20066;-85
2022/11/15 12:39:00;;;;;;;4.45;3.20;;;;;;;13.39;100.00;100669.31;4947156;28;20031;-85
2022/11/15 12:41:30;;;;;;;5.95;3.00;;;;;;;13.37;100.00;100663.41;4952395;28;20023;-85
2022/11/15 12:43:58;;;;;;;4.63;3.38;;;;;;;13.41;100.00;100663.91;4951720;28;20392;-86